Cicero, NY

9:42 PM EST on December 20, 2014 (GMT -0500)
The Pastures | Change Station
CLOSE
Current Station
Personal Weather Station
Location: Cicero, NY
Elevation: 430 ft
Nearby Weather Stations

Elev 430 ft 43.17 °N, 76.08 °W | Updated 2 seconds ago

Mostly Cloudy
Mostly Cloudy
21.0 °F
Feels Like 21 °F
N
0.0
Wind Variable Wind from NE
Gusts 0.0 mph

Today
High -- | Low -- °F
--% Chance of Precip.
Yesterday
High -- | Low -- °F
Precip. -- in
7:32 AM 4:31 PM
Waning Crescent, 1% visible
Pressure 30.31 in
Visibility 10.0 miles
Clouds Mostly Cloudy 3100 ft
Windchill 21 °F
Dew Point 18 °F
Humidity 88%
Rainfall 0.00 in
Snow Depth Not available.
UV 0.0 out of 12
Pollen .10 out of 12
Air Quality Not available.
Flu Activity Not available.
METAR KSYR 210154Z 00000KT 10SM BKN031 M06/M07 A3029 RMK AO2 SLP262 T10561067

More Conditions Fewer Conditions

Pressure 30.31 in
Visibility 10.0 miles
Clouds Mostly Cloudy 3100 ft
Windchill 21 °F
Dew Point 18 °F
Humidity 88%
Rainfall 0.00 in
Snow Depth Not available.
UV 0.0 out of 12
Pollen .10 out of 12
Air Quality Not available.
Flu Activity Not available.
METAR KSYR 210154Z 00000KT 10SM BKN031 M06/M07 A3029 RMK AO2 SLP262 T10561067

More Conditions Fewer Conditions

10-Day Weather Forecast

Almanac

Astronomy

Dec. 20, 2014 Rise Set
Actual Time
Civil Twilight
Nautical Twilight
Astronomical Twilight
Moon
Length of Visible Light
Length of Day
Tomorrow will be .
, % of the Moon is Illuminated

Today's Extremes

State Highs State Lows

Community

WunderPhotos

Upload Photos

1,779,348 photos uploaded!

WunderBlogs® & News

Nearby

Air Quality

  Air Quality AQ Index Pollutant
Not available.

Snow Depth

Station Depth Elevation

Earthquake Activity

City Distance Mag. Time & Date
Minimum magnitude displayed is 2.5.

Coastal Water Temperatures

Place Temperature

Nearby Weather Stations